Mirai, Brazil
Current Conditions -  °F | °C
As of 12:00 PM on Sunday 25 Jan 2015 (Local Time) from SBJF Reporting Station
Broken Clouds Broken Clouds  
Wind Chill: 75°   Ceiling: 2000
Heat Index: 75°   Visibility: 6mi
Dew Point: 64°   Wind: 13mph
Humidity: 69%   Direction: 30°NNE
Pressure: 30.12"   Gusts: NA
Location:  21.2°S, 42.61°W
Report Text: SBJF 251400Z 03011KT 9999 FEW012 BKN020 24/18 Q1020
Loading
Personal Weather Stations






























Interactive Weather Map New forecast layout! Learn more

10-Day Weather Forecast

Advertisements
Track Severe Weather on mobile